LFMU/BZR METAR and TAF weather

Enter ICAO airport designator
Station Type Date Time Source
LFMU METAR 2021/09/25 12:00 UTC NOAA

LFMU 251200Z AUTO 13014KT 9999 FEW019/// SCT034/// BKN054/// ///CB 24/21 Q1016 TEMPO SHRA BKN014TCU


Station Type Date Time Source
LFMU Decoded METAR 2021/09/25 12:00 UTC NOAA

Beziers / Vias, France (LFMU) 43-19N 003-21E
Sep 25, 2021 - 08:00 AM EDT / 2021.09.25 1200 UTC
Wind: from the SE (130 degrees) at 16 MPH (14 KT):0
Visibility: greater than 7 mile(s):0
Sky conditions: mostly cloudy
Weather: Cumulonimbus clouds, towering cumulus clouds observed
Temperature: 75 F (24 C)
Dew Point: 69 F (21 C)
Relative Humidity: 83%
Pressure (altimeter): 30.00 in. Hg (1016 hPa)
ob: LFMU 251200Z AUTO 13014KT 9999 FEW019/// SCT034/// BKN054/// ///CB 24/21 Q1016 TEMPO SHRA BKN014TCU
cycle: 12

Station Type Date Time Source
LFMU TAF 2021/09/25 11:48 UTC NOAA

TAF
AMD TAF
AMD LFMU 251144Z 2511/2609 11010KT 9999 OVC014
TEMPO 2512/2518 SHRA BKN014TCU
TEMPO 2518/2603 TSRA BKN010CB
TEMPO 2603/2607 VRB10G20KT 3000 TSRA BR BKN010CB
BECMG 2607/2609 28010KT NSW NSC

Example: see airport list